createdAt,value
2019-05-05T00:00:18.115Z,3.9
2019-05-05T00:01:20.181Z,3.9
2019-05-05T00:03:26.010Z,3.9
2019-05-05T00:04:28.095Z,3.8
2019-05-05T00:05:30.162Z,3.7
2019-05-05T00:06:34.459Z,3.6
2019-05-05T00:08:38.654Z,3.6
2019-05-05T00:10:45.430Z,3.6
2019-05-05T00:11:47.520Z,3.5
2019-05-05T00:13:51.692Z,3.6
2019-05-05T00:14:55.771Z,3.5
2019-05-05T00:16:59.955Z,3.2
2019-05-05T00:19:06.260Z,3.4
2019-05-05T00:20:08.328Z,3.4
2019-05-05T00:21:10.419Z,3.3
2019-05-05T00:22:12.490Z,3.2
2019-05-05T00:24:18.058Z,3.2
2019-05-05T00:26:25.178Z,3.3
2019-05-05T00:27:27.254Z,3.3
2019-05-05T00:29:31.707Z,3.1
2019-05-05T00:31:37.781Z,3.5
2019-05-05T00:33:41.925Z,3.3
2019-05-05T00:34:45.537Z,3.3
2019-05-05T00:36:50.021Z,3.3
2019-05-05T00:38:57.122Z,3.4
2019-05-05T00:39:59.189Z,3.3
2019-05-05T00:41:01.247Z,3.3
2019-05-05T00:42:06.000Z,3.2
2019-05-05T00:44:10.569Z,3.1
2019-05-05T00:46:17.660Z,3.3
2019-05-05T00:47:19.741Z,3.2
2019-05-05T00:49:26.097Z,3.3
2019-05-05T00:51:30.647Z,3.3
2019-05-05T00:52:32.718Z,3.4
2019-05-05T00:54:37.549Z,3.3
2019-05-05T00:56:41.777Z,3.3
2019-05-05T00:58:48.247Z,3.2
2019-05-05T00:59:50.322Z,3.3
2019-05-05T01:01:56.718Z,3
2019-05-05T01:04:01.682Z,3.1
2019-05-05T01:05:05.595Z,3.1
2019-05-05T01:07:09.771Z,3
2019-05-05T01:08:11.831Z,3
2019-05-05T01:09:15.876Z,3.1
2019-05-05T01:10:17.943Z,3
2019-05-05T01:12:23.793Z,2.8
2019-05-05T01:14:28.530Z,2.9
2019-05-05T01:15:30.607Z,2.7
2019-05-05T01:17:35.611Z,2.8
2019-05-05T01:19:39.791Z,2.9
2019-05-05T01:20:42.248Z,2.8
2019-05-05T01:21:46.420Z,2.8
2019-05-05T01:22:48.501Z,2.9
2019-05-05T01:24:52.684Z,2.9
2019-05-05T01:26:57.627Z,3.1
2019-05-05T01:27:59.680Z,3.1
2019-05-05T01:29:01.744Z,3.1
2019-05-05T01:30:06.060Z,3.2
2019-05-05T01:32:10.248Z,3.4
2019-05-05T01:33:14.360Z,3.4
2019-05-05T01:35:18.720Z,3.3
2019-05-05T01:37:22.909Z,3.3
2019-05-05T01:38:25.855Z,3.2
2019-05-05T01:40:30.038Z,3.2
2019-05-05T01:42:36.283Z,2.9
2019-05-05T01:43:38.613Z,3.1
2019-05-05T01:45:42.806Z,2.9
2019-05-05T01:47:47.690Z,2.8
2019-05-05T01:48:49.771Z,3
2019-05-05T01:49:51.835Z,2.9
2019-05-05T01:50:55.472Z,2.8
2019-05-05T01:52:59.970Z,3.1
2019-05-05T01:55:06.275Z,2.9
2019-05-05T01:56:08.354Z,2.7
2019-05-05T01:58:12.576Z,3
2019-05-05T02:00:17.894Z,3
2019-05-05T02:01:20.227Z,3
2019-05-05T02:02:22.291Z,3
2019-05-05T02:03:25.862Z,2.8
2019-05-05T02:05:30.099Z,2.9
2019-05-05T02:07:35.596Z,2.8
2019-05-05T02:08:38.012Z,2.8
2019-05-05T02:10:42.209Z,2.8
2019-05-05T02:12:48.467Z,2.7
2019-05-05T02:14:54.874Z,2.3
2019-05-05T02:15:58.155Z,2.5
2019-05-05T02:18:04.956Z,2.6
2019-05-05T02:20:09.368Z,2.7
2019-05-05T02:21:11.733Z,2.7
2019-05-05T02:22:15.760Z,2.6
2019-05-05T02:23:17.835Z,2.7
2019-05-05T02:25:22.330Z,2.6
2019-05-05T02:27:28.059Z,2.5
2019-05-05T02:28:30.112Z,2.6
2019-05-05T02:30:37.411Z,2.5
2019-05-05T02:32:45.877Z,2.6
2019-05-05T02:33:48.234Z,2.5
2019-05-05T02:35:56.619Z,2.4
2019-05-05T02:38:01.788Z,2.5
2019-05-05T02:40:09.180Z,2.4
2019-05-05T02:41:11.574Z,2.4
2019-05-05T02:43:17.911Z,2.6
2019-05-05T02:45:25.748Z,2.3
2019-05-05T02:46:28.488Z,2.5
2019-05-05T02:48:35.911Z,2.3
2019-05-05T02:51:07.759Z,2.6
2019-05-05T02:52:09.797Z,2.6
2019-05-05T02:53:11.810Z,2.6
2019-05-05T02:55:17.932Z,2.6
2019-05-05T02:56:20.269Z,2.5
2019-05-05T02:58:27.069Z,2.6
2019-05-05T03:00:31.288Z,2.6
2019-05-05T03:01:35.440Z,2.6
2019-05-05T03:03:39.623Z,2.5
2019-05-05T03:05:44.520Z,2.3
2019-05-05T03:06:46.574Z,2.4
2019-05-05T03:07:48.637Z,2.5
2019-05-05T03:08:51.041Z,2.3
2019-05-05T03:10:57.460Z,2.4
2019-05-05T03:13:02.030Z,2.5
2019-05-05T03:14:05.181Z,2.2
2019-05-05T03:16:09.378Z,2.5
2019-05-05T03:18:14.525Z,2.6
2019-05-05T03:20:18.740Z,2.4
2019-05-05T03:21:20.794Z,2.5
2019-05-05T03:23:26.899Z,2.7
2019-05-05T03:25:31.102Z,2.8
2019-05-05T03:26:35.108Z,2.9
2019-05-05T03:28:39.250Z,2.7
2019-05-05T03:30:46.816Z,2.7
2019-05-05T03:32:51.253Z,2.7
2019-05-05T03:33:56.465Z,2.7
2019-05-05T03:36:01.040Z,2.5
2019-05-05T03:38:07.367Z,2.8
2019-05-05T03:39:09.431Z,2.7
2019-05-05T03:41:15.044Z,2.5
2019-05-05T03:42:17.103Z,2.7
2019-05-05T03:43:19.170Z,2.7
2019-05-05T03:44:21.230Z,2.7
2019-05-05T03:46:26.890Z,2.6
2019-05-05T03:48:31.094Z,2.5
2019-05-05T03:49:35.285Z,2.6
2019-05-05T03:51:39.709Z,2.4
2019-05-05T03:53:46.072Z,2.3
2019-05-05T03:54:48.127Z,2.4
2019-05-05T03:55:50.187Z,2.6
2019-05-05T03:56:53.935Z,2.5
2019-05-05T03:58:59.425Z,2.4
2019-05-05T04:01:05.631Z,2.5
2019-05-05T04:02:07.682Z,2.5
2019-05-05T04:04:14.199Z,2.2
2019-05-05T04:05:16.273Z,2.4
2019-05-05T04:06:18.352Z,2.2
2019-05-05T04:07:20.433Z,2.5
2019-05-05T04:09:27.101Z,2.7
2019-05-05T04:11:31.568Z,2.7
2019-05-05T04:12:36.025Z,2.6
2019-05-05T04:14:40.209Z,2.6
2019-05-05T04:16:46.440Z,2.8
2019-05-05T04:18:51.212Z,3
2019-05-05T04:19:55.255Z,3
2019-05-05T04:21:59.458Z,3
2019-05-05T04:23:03.958Z,3.1
2019-05-05T04:24:06.330Z,3.1
2019-05-05T04:25:08.389Z,3.1
2019-05-05T04:27:15.395Z,3.2
2019-05-05T04:29:19.852Z,3.2
2019-05-05T04:30:24.257Z,3.2
2019-05-05T04:32:28.449Z,3
2019-05-05T04:34:35.320Z,2.9
2019-05-05T04:36:39.506Z,3.1
2019-05-05T04:37:43.934Z,3
2019-05-05T04:39:48.120Z,3.2
2019-05-05T04:41:54.367Z,3.4
2019-05-05T04:42:56.609Z,3.4
2019-05-05T04:43:58.688Z,3.5
2019-05-05T04:45:01.026Z,3.6
2019-05-05T04:47:07.747Z,3.5
2019-05-05T04:49:13.517Z,3.4
2019-05-05T04:50:19.292Z,3.3
2019-05-05T04:52:24.708Z,3.8
2019-05-05T04:53:26.795Z,3.8
2019-05-05T04:54:28.862Z,3.8
2019-05-05T04:55:30.912Z,3.7
2019-05-05T04:57:37.758Z,3.9
2019-05-05T04:59:41.939Z,3.9
2019-05-05T05:00:45.250Z,4
2019-05-05T05:02:49.444Z,3.9
2019-05-05T05:04:55.020Z,4.1
2019-05-05T05:05:57.075Z,4
2019-05-05T05:08:01.215Z,4.2
2019-05-05T05:10:07.176Z,4.3
2019-05-05T05:11:09.519Z,4.3
2019-05-05T05:13:14.950Z,4.5
2019-05-05T05:15:19.178Z,4.6
2019-05-05T05:17:26.218Z,4.7
2019-05-05T05:18:28.269Z,4.9
2019-05-05T05:20:34.798Z,5.1
2019-05-05T05:22:38.982Z,5.1
2019-05-05T05:23:41.055Z,5.1
2019-05-05T05:24:45.487Z,5.3
2019-05-05T05:25:47.659Z,5.3
2019-05-05T05:27:54.453Z,5.3
2019-05-05T05:29:58.949Z,5.1
2019-05-05T05:31:01.010Z,5.2
2019-05-05T05:32:05.600Z,5.5
2019-05-05T05:33:07.665Z,5.5
2019-05-05T05:35:14.789Z,5.4
2019-05-05T05:37:19.002Z,6
2019-05-05T05:38:21.057Z,5.9
2019-05-05T05:40:27.372Z,6.2
2019-05-05T05:42:33.883Z,6
2019-05-05T05:43:36.175Z,6.1
2019-05-05T05:45:40.349Z,6.3
2019-05-05T05:47:46.547Z,6.4
2019-05-05T05:48:48.999Z,5.9
2019-05-05T05:50:54.762Z,6.3
2019-05-05T05:52:59.247Z,6.4
2019-05-05T05:54:03.567Z,6.3
2019-05-05T05:56:08.383Z,6.4
2019-05-05T05:58:15.356Z,6.6
2019-05-05T05:59:17.428Z,6.8
2019-05-05T06:00:20.051Z,6.9
2019-05-05T06:01:25.055Z,6.9
2019-05-05T06:03:29.239Z,6.6
2019-05-05T06:05:35.688Z,7
2019-05-05T06:06:37.759Z,7.1
2019-05-05T06:07:39.884Z,7.2
2019-05-05T06:08:44.595Z,6.9
2019-05-05T06:10:48.776Z,7.2
2019-05-05T06:12:55.681Z,7.2
2019-05-05T06:13:58.049Z,7.1
2019-05-05T06:16:04.759Z,7.2
2019-05-05T06:18:09.222Z,7.7
2019-05-05T06:19:11.475Z,7.6
2019-05-05T06:20:15.896Z,7.6
2019-05-05T06:21:18.238Z,7.5
2019-05-05T06:22:34.969Z,7.3
2019-05-05T06:23:37.102Z,7.2
2019-05-05T06:25:41.528Z,7.6
2019-05-05T06:27:47.785Z,8.1
2019-05-05T06:28:49.852Z,8.1
2019-05-05T06:30:56.605Z,7.9
2019-05-05T06:33:01.057Z,8
2019-05-05T06:35:06.942Z,8.3
2019-05-05T06:36:09.021Z,8.1
2019-05-05T06:38:15.097Z,8.5
2019-05-05T06:40:19.948Z,8.6
2019-05-05T06:41:24.078Z,8.8
2019-05-05T06:43:28.209Z,8.4
2019-05-05T06:44:30.272Z,8.1
2019-05-05T06:46:36.972Z,8.4
2019-05-05T06:48:43.705Z,8.7
2019-05-05T06:50:48.583Z,8.5
2019-05-05T06:51:50.652Z,8.3
2019-05-05T06:53:57.834Z,8.8
2019-05-05T06:56:04.647Z,8.9
2019-05-05T06:57:07.026Z,9.3
2019-05-05T06:58:09.083Z,9.6
2019-05-05T06:59:11.169Z,9
2019-05-05T07:01:18.165Z,9.6
2019-05-05T07:03:25.103Z,9.4
2019-05-05T07:04:27.195Z,9.4
2019-05-05T07:05:29.569Z,9
2019-05-05T07:06:31.654Z,9.5
2019-05-05T07:08:37.765Z,10
2019-05-05T07:10:41.950Z,9.6
2019-05-05T07:11:44.770Z,9.9
2019-05-05T07:13:49.255Z,9.4
2019-05-05T07:15:55.307Z,9.9
2019-05-05T07:16:57.391Z,9.7
2019-05-05T07:18:00.226Z,9.9
2019-05-05T07:19:05.277Z,10.4
2019-05-05T07:21:09.747Z,9.8
2019-05-05T07:23:16.277Z,10.1
2019-05-05T07:24:18.361Z,10.3
2019-05-05T07:25:21.390Z,10.3
2019-05-05T07:26:25.495Z,10.5
2019-05-05T07:28:29.979Z,10.6
2019-05-05T07:30:37.145Z,10.5
2019-05-05T07:31:39.680Z,10.5
2019-05-05T07:33:44.895Z,10.8
2019-05-05T07:36:07.043Z,10.3
2019-05-05T07:37:09.094Z,10.6
2019-05-05T07:38:11.173Z,10.6
2019-05-05T07:39:15.398Z,10.7
2019-05-05T07:40:17.521Z,11.1
2019-05-05T07:41:20.609Z,10.3
2019-05-05T07:43:27.539Z,10.6
2019-05-05T07:45:35.589Z,11
2019-05-05T07:46:37.661Z,10.9
2019-05-05T07:48:44.142Z,11.1
2019-05-05T07:51:06.470Z,10.9
2019-05-05T07:52:09.533Z,11.2
2019-05-05T07:53:18.733Z,11.5
2019-05-05T07:55:24.859Z,11.8
2019-05-05T07:56:27.245Z,11.9
2019-05-05T07:58:31.728Z,11.8
2019-05-05T08:00:37.271Z,11.9
2019-05-05T08:01:39.325Z,12
2019-05-05T08:02:44.111Z,12.2
2019-05-05T08:03:46.853Z,11.6
2019-05-05T08:05:51.456Z,11.3
2019-05-05T08:07:57.391Z,12.2
2019-05-05T08:08:59.509Z,12.1
2019-05-05T08:11:05.892Z,11.9
2019-05-05T08:13:11.246Z,11.9
2019-05-05T08:15:17.565Z,12.3
2019-05-05T08:16:19.618Z,12.9
2019-05-05T08:18:25.991Z,13.6
2019-05-05T08:19:28.093Z,12.9
2019-05-05T08:21:35.276Z,12.7
2019-05-05T08:23:39.872Z,13.8
2019-05-05T08:24:44.132Z,14.1
2019-05-05T08:26:48.948Z,14
2019-05-05T08:28:55.623Z,13.5
2019-05-05T08:29:57.707Z,13.6
2019-05-05T08:32:04.544Z,14.1
2019-05-05T08:34:09.064Z,14.4
2019-05-05T08:35:11.127Z,14.4
2019-05-05T08:37:17.849Z,14.3
2019-05-05T08:39:25.386Z,13.6
2019-05-05T08:41:30.014Z,13.7
2019-05-05T08:42:34.444Z,14.2
2019-05-05T08:44:39.054Z,14.9
2019-05-05T08:46:45.561Z,14.7
2019-05-05T08:47:47.731Z,14.1
2019-05-05T08:48:49.822Z,14.1
2019-05-05T08:49:54.216Z,14
2019-05-05T08:51:58.406Z,13.8
2019-05-05T08:54:05.196Z,13.8
2019-05-05T08:55:07.320Z,14.3
2019-05-05T08:57:11.574Z,14.3
2019-05-05T08:59:18.696Z,14.1
2019-05-05T09:01:24.928Z,14.9
2019-05-05T09:02:27.333Z,14.6
2019-05-05T09:04:33.796Z,15
2019-05-05T09:06:39.177Z,15
2019-05-05T09:07:41.266Z,14.4
2019-05-05T09:08:45.552Z,14.6
2019-05-05T09:09:47.655Z,15
2019-05-05T09:11:58.296Z,15.3
2019-05-05T09:14:04.890Z,14.9
2019-05-05T09:16:09.179Z,15.4
2019-05-05T09:17:13.850Z,15.3
2019-05-05T09:19:18.524Z,15
2019-05-05T09:21:24.987Z,14.9
2019-05-05T09:22:27.140Z,14.8
2019-05-05T09:23:29.213Z,15.4
2019-05-05T09:24:31.584Z,16.2
2019-05-05T09:26:38.302Z,15.9
2019-05-05T09:28:44.905Z,16.7
2019-05-05T09:29:47.335Z,16.6
2019-05-05T09:31:53.839Z,16.4
2019-05-05T09:33:58.384Z,16
2019-05-05T09:35:00.460Z,15.9
2019-05-05T09:36:05.227Z,15.5
2019-05-05T09:37:07.648Z,16.1
2019-05-05T09:39:14.213Z,15.8
2019-05-05T09:41:18.550Z,15.3
2019-05-05T09:42:20.634Z,16.3
2019-05-05T09:44:27.221Z,16.7
2019-05-05T09:46:31.478Z,16.5
2019-05-05T09:48:37.951Z,17.1
2019-05-05T09:49:40.058Z,16.7
2019-05-05T09:51:47.583Z,16.8
2019-05-05T09:53:54.357Z,16.4
2019-05-05T09:55:59.626Z,16.4
2019-05-05T09:57:04.815Z,16.7
2019-05-05T09:59:10.535Z,16.2
2019-05-05T10:01:18.155Z,16
2019-05-05T10:02:20.519Z,16
2019-05-05T10:03:22.618Z,16.4
2019-05-05T10:04:25.418Z,16.6
2019-05-05T10:06:29.604Z,16.9
2019-05-05T10:08:35.222Z,16.6
2019-05-05T10:09:37.334Z,16
2019-05-05T10:11:41.589Z,15.4
2019-05-05T10:13:47.826Z,15.8
2019-05-05T10:14:49.923Z,15.8
2019-05-05T10:15:52.043Z,15.7
2019-05-05T10:16:55.448Z,15.8
2019-05-05T10:19:00.071Z,17.1
2019-05-05T10:21:07.591Z,16.8
2019-05-05T10:22:09.999Z,17
2019-05-05T10:23:14.443Z,17.1
2019-05-05T10:24:34.468Z,16.7
2019-05-05T10:26:38.650Z,16.4
2019-05-05T10:27:48.641Z,16.4
2019-05-05T10:28:50.733Z,15.6
2019-05-05T10:30:57.708Z,15.8
2019-05-05T10:31:59.795Z,15.8
2019-05-05T10:34:06.510Z,16.3
2019-05-05T10:36:10.763Z,16.5
2019-05-05T10:38:17.382Z,17.5
2019-05-05T10:39:19.456Z,17
2019-05-05T10:41:24.920Z,17.2
2019-05-05T10:43:29.171Z,17.1
2019-05-05T10:44:31.262Z,17.3
2019-05-05T10:46:36.149Z,17
2019-05-05T10:48:40.400Z,16.8
2019-05-05T10:50:47.063Z,17.4
2019-05-05T10:51:49.169Z,17.9
2019-05-05T10:53:55.946Z,18.1
2019-05-05T10:56:00.457Z,18.1
2019-05-05T10:57:05.396Z,17.6
2019-05-05T10:59:09.698Z,17.4
2019-05-05T11:01:18.608Z,17.6
2019-05-05T11:03:24.805Z,17.9
2019-05-05T11:04:26.922Z,18
2019-05-05T11:06:31.164Z,18.1
2019-05-05T11:08:37.306Z,18.6
2019-05-05T11:09:39.692Z,18.5
2019-05-05T11:10:41.796Z,18.6
2019-05-05T11:11:44.960Z,18.3
2019-05-05T11:13:49.217Z,17.6
2019-05-05T11:15:55.940Z,17.5
2019-05-05T11:16:58.045Z,17.6
2019-05-05T11:18:00.140Z,17.8
2019-05-05T11:19:05.238Z,18.1
2019-05-05T11:21:09.481Z,18.4
2019-05-05T11:23:16.297Z,18.9
2019-05-05T11:24:18.415Z,19.2
2019-05-05T11:26:25.209Z,18.9
2019-05-05T11:28:29.487Z,19
2019-05-05T11:30:35.435Z,19.6
2019-05-05T11:31:37.550Z,19.3
2019-05-05T11:33:44.449Z,18.9
2019-05-05T11:35:48.962Z,19
2019-05-05T11:36:51.052Z,19.8
2019-05-05T11:38:57.725Z,19.1
2019-05-05T11:41:02.360Z,17.7
2019-05-05T11:42:06.198Z,17.3
2019-05-05T11:43:08.694Z,17.2
2019-05-05T11:44:11.076Z,17.7
2019-05-05T11:46:18.041Z,17.9
2019-05-05T11:48:25.011Z,18.1
2019-05-05T11:49:27.095Z,17.8
2019-05-05T11:50:29.209Z,17.4
2019-05-05T11:51:31.317Z,17.5
2019-05-05T11:53:36.919Z,16.9
2019-05-05T11:55:41.427Z,18
2019-05-05T11:56:45.950Z,17.8
2019-05-05T11:58:50.201Z,16.9
2019-05-05T12:00:56.520Z,16.9
2019-05-05T12:03:00.756Z,17.9
2019-05-05T12:04:05.357Z,17.9
2019-05-05T12:06:09.905Z,18.1
2019-05-05T12:08:16.031Z,18.3
2019-05-05T12:09:18.132Z,18.6
2019-05-05T12:11:24.828Z,18.5
2019-05-05T12:13:29.377Z,18.8
2019-05-05T12:14:31.482Z,19.1
2019-05-05T12:15:35.182Z,19.4
2019-05-05T12:16:37.660Z,19.5
2019-05-05T12:18:41.834Z,20
2019-05-05T12:20:46.698Z,19.2
2019-05-05T12:21:48.797Z,19.6
2019-05-05T12:22:50.872Z,19.4
2019-05-05T12:23:55.406Z,19.8
2019-05-05T12:25:59.634Z,19
2019-05-05T12:27:04.066Z,19
2019-05-05T12:28:06.164Z,18.7
2019-05-05T12:29:08.212Z,18.6
2019-05-05T12:31:15.165Z,18.8
2019-05-05T12:33:19.661Z,18.8
2019-05-05T12:34:23.981Z,18.9
2019-05-05T12:36:28.538Z,18.3
2019-05-05T12:38:35.401Z,18.1
2019-05-05T12:40:39.954Z,17.8
2019-05-05T12:41:42.076Z,17.6
2019-05-05T12:42:45.053Z,17.8
2019-05-05T12:44:49.307Z,17.3
2019-05-05T12:46:53.525Z,17.1
2019-05-05T12:47:55.627Z,17.3
2019-05-05T12:49:59.846Z,17
2019-05-05T12:52:05.644Z,17
2019-05-05T12:53:07.740Z,17.6
2019-05-05T12:54:09.831Z,17.9
2019-05-05T12:55:13.775Z,17.9
2019-05-05T12:57:18.842Z,17.8
2019-05-05T12:59:25.889Z,18
2019-05-05T13:00:27.937Z,18.3
2019-05-05T13:02:32.100Z,18.3
2019-05-05T13:04:38.703Z,18.2
2019-05-05T13:05:40.782Z,18.7
2019-05-05T13:06:45.444Z,19.5
2019-05-05T13:07:47.540Z,19.5
2019-05-05T13:09:51.779Z,19.5
2019-05-05T13:11:56.631Z,18.9
2019-05-05T13:12:58.720Z,18.9
2019-05-05T13:14:00.829Z,19.6
2019-05-05T13:15:05.327Z,19.8
2019-05-05T13:17:09.886Z,20.4
2019-05-05T13:19:16.484Z,20.2
2019-05-05T13:20:18.586Z,20.2
2019-05-05T13:22:26.411Z,21
2019-05-05T13:24:30.928Z,21
2019-05-05T13:25:34.995Z,21
2019-05-05T13:27:39.522Z,20.6
2019-05-05T13:29:46.091Z,20.4
2019-05-05T13:30:48.550Z,19.9
2019-05-05T13:32:55.049Z,20.4
2019-05-05T13:34:59.251Z,20.6
2019-05-05T13:36:01.349Z,20.6
2019-05-05T13:37:04.677Z,20.5
2019-05-05T13:38:07.042Z,20.9
2019-05-05T13:40:11.315Z,20.9
2019-05-05T13:42:15.519Z,20.7
2019-05-05T13:43:17.605Z,20.2
2019-05-05T13:45:24.288Z,20.5
2019-05-05T13:47:28.565Z,19.6
2019-05-05T13:48:30.684Z,19.4
2019-05-05T13:49:33.451Z,18.9
2019-05-05T13:50:35.819Z,19.2
2019-05-05T13:52:40.039Z,19.6
2019-05-05T13:54:44.948Z,20.2
2019-05-05T13:55:47.504Z,20
2019-05-05T13:57:51.736Z,20.2
2019-05-05T13:59:55.994Z,19.6
2019-05-05T14:00:58.092Z,19.5
2019-05-05T14:02:00.178Z,19.6
2019-05-05T14:03:05.006Z,19
2019-05-05T14:05:09.222Z,19.7
2019-05-05T14:07:13.783Z,18.7
2019-05-05T14:08:16.179Z,18.8
2019-05-05T14:10:20.423Z,18.6
2019-05-05T14:12:27.074Z,18.6
2019-05-05T14:14:33.421Z,18.6
2019-05-05T14:15:35.960Z,18.2
2019-05-05T14:17:44.166Z,18
2019-05-05T14:20:15.427Z,17.6
2019-05-05T14:21:17.469Z,18
2019-05-05T14:22:19.552Z,18
2019-05-05T14:24:23.736Z,17.4
2019-05-05T14:25:26.132Z,17.3
2019-05-05T14:26:35.895Z,17.2
2019-05-05T14:27:38.258Z,16.6
2019-05-05T14:29:42.847Z,16.6
2019-05-05T14:30:44.939Z,16.8
2019-05-05T14:32:49.398Z,16.5
2019-05-05T14:33:51.491Z,16.7
2019-05-05T14:34:55.623Z,16.9
2019-05-05T14:35:57.753Z,16.7
2019-05-05T14:38:04.221Z,16.5
2019-05-05T14:39:06.613Z,16.7
2019-05-05T14:40:08.984Z,17.2
2019-05-05T14:41:11.030Z,17.4
2019-05-05T14:43:17.983Z,17.8
2019-05-05T14:45:24.748Z,18
2019-05-05T14:46:27.108Z,18.4
2019-05-05T14:47:29.197Z,18.1
2019-05-05T14:48:33.532Z,18.8
2019-05-05T14:50:38.288Z,19.1
2019-05-05T14:52:44.749Z,19.1
2019-05-05T14:53:46.930Z,19
2019-05-05T14:55:51.344Z,19.4
2019-05-05T14:57:58.188Z,19.9
2019-05-05T15:00:06.142Z,19.6
2019-05-05T15:01:08.323Z,19.9
2019-05-05T15:03:14.978Z,18.6
2019-05-05T15:05:20.387Z,18.4
2019-05-05T15:06:24.689Z,18.3
2019-05-05T15:08:29.145Z,17.9
2019-05-05T15:10:35.793Z,17.6
2019-05-05T15:11:37.996Z,17.7
2019-05-05T15:13:45.415Z,17.8
2019-05-05T15:15:50.004Z,17.5
2019-05-05T15:16:54.491Z,17.7
2019-05-05T15:18:58.946Z,17.9
2019-05-05T15:21:03.433Z,18.5
2019-05-05T15:22:05.616Z,18.5
2019-05-05T15:23:07.821Z,17.9
2019-05-05T15:24:09.997Z,18
2019-05-05T15:26:15.118Z,17.4
2019-05-05T15:28:20.023Z,17.7
2019-05-05T15:29:22.509Z,17.5
2019-05-05T15:31:30.790Z,17.4
2019-05-05T15:33:37.564Z,17.4
2019-05-05T15:35:47.544Z,17
2019-05-05T15:36:50.021Z,17
2019-05-05T15:38:56.830Z,17.4
2019-05-05T15:41:01.291Z,17.5
2019-05-05T15:43:08.510Z,17.3
2019-05-05T15:44:10.714Z,17.3
2019-05-05T15:46:16.639Z,16.4
2019-05-05T15:48:21.103Z,16.1
2019-05-05T15:49:23.560Z,16.2
2019-05-05T15:50:25.742Z,15.9
2019-05-05T15:51:27.918Z,15.9
2019-05-05T15:53:32.339Z,16
2019-05-05T15:55:37.350Z,16.2
2019-05-05T15:56:39.516Z,16.4
2019-05-05T15:58:44.965Z,15.7
2019-05-05T16:00:49.676Z,15.5
2019-05-05T16:01:51.856Z,15.8
2019-05-05T16:02:56.036Z,15.6
2019-05-05T16:03:58.231Z,15.8
2019-05-05T16:06:04.804Z,16.1
2019-05-05T16:08:09.668Z,16.1
2019-05-05T16:09:14.088Z,15.6
2019-05-05T16:11:28.284Z,15.6
2019-05-05T16:12:41.221Z,16
2019-05-05T16:13:45.262Z,15.6
2019-05-05T16:15:59.187Z,15.7
2019-05-05T16:18:10.697Z,16.1
2019-05-05T16:19:15.895Z,16.2
2019-05-05T16:21:27.993Z,16.3
2019-05-05T16:22:35.661Z,16.5
2019-05-05T16:23:38.090Z,16.7
2019-05-05T16:24:44.481Z,16.8
2019-05-05T16:25:47.996Z,16.8
2019-05-05T16:26:51.093Z,17
2019-05-05T16:29:01.082Z,17.4
2019-05-05T16:31:09.487Z,16.8
2019-05-05T16:32:27.610Z,17
2019-05-05T16:33:30.245Z,17.1
2019-05-05T16:34:34.653Z,17.2
2019-05-05T16:36:39.626Z,17.1
2019-05-05T16:38:45.322Z,17.4
2019-05-05T16:40:49.785Z,17
2019-05-05T16:41:54.027Z,17.1
2019-05-05T16:43:58.451Z,16.8
2019-05-05T16:46:05.393Z,16.5
2019-05-05T16:47:07.592Z,16
2019-05-05T16:48:09.806Z,16.1
2019-05-05T16:49:14.215Z,16.5
2019-05-05T16:51:18.669Z,16.7
2019-05-05T16:52:20.894Z,16.3
2019-05-05T16:53:24.962Z,16.2
2019-05-05T16:54:27.143Z,16.2
2019-05-05T16:56:33.550Z,15.7
2019-05-05T16:58:40.480Z,15.9
2019-05-05T16:59:45.064Z,16.1
2019-05-05T17:01:49.488Z,15.7
2019-05-05T17:04:15.538Z,16
2019-05-05T17:06:20.611Z,15.9
2019-05-05T17:07:25.594Z,15.8
2019-05-05T17:09:30.048Z,15
2019-05-05T17:11:36.674Z,15.6
2019-05-05T17:13:41.103Z,15.4
2019-05-05T17:14:45.809Z,15.3
2019-05-05T17:16:50.263Z,16
2019-05-05T17:17:54.626Z,15.6
2019-05-05T17:18:57.114Z,15.1
2019-05-05T17:19:59.298Z,15.7
2019-05-05T17:22:05.432Z,14.9
2019-05-05T17:24:10.141Z,15
2019-05-05T17:25:15.169Z,15.2
2019-05-05T17:27:19.916Z,15.1
2019-05-05T17:29:26.694Z,14.9
2019-05-05T17:31:31.148Z,14.7
2019-05-05T17:32:35.512Z,14.8
2019-05-05T17:34:41.903Z,15
2019-05-05T17:36:46.520Z,14.7
2019-05-05T17:37:48.689Z,14.8
2019-05-05T17:38:50.889Z,14.7
2019-05-05T17:39:55.154Z,14.6
2019-05-05T17:41:59.578Z,14.7
2019-05-05T17:43:01.755Z,14.8
2019-05-05T17:45:06.841Z,14.1
2019-05-05T17:47:11.445Z,14.4
2019-05-05T17:48:15.268Z,13.7
2019-05-05T17:50:19.981Z,14
2019-05-05T17:51:24.269Z,13.5
2019-05-05T17:52:26.452Z,13.1
2019-05-05T17:53:28.932Z,12.9
2019-05-05T17:55:34.995Z,12.9
2019-05-05T17:56:37.166Z,13.3
2019-05-05T17:57:39.349Z,12.9
2019-05-05T17:58:41.522Z,12.9
2019-05-05T18:00:48.233Z,13.1
2019-05-05T18:02:54.546Z,12.9
2019-05-05T18:03:56.698Z,13
2019-05-05T18:06:06.773Z,12.8
2019-05-05T18:08:11.495Z,12.8
2019-05-05T18:09:15.166Z,13.3
2019-05-05T18:11:19.797Z,12.9
2019-05-05T18:13:26.434Z,12.6
2019-05-05T18:14:29.271Z,12.5
2019-05-05T18:16:35.043Z,12.8
2019-05-05T18:18:40.192Z,12.9
2019-05-05T18:19:44.804Z,12.6
2019-05-05T18:21:49.218Z,12.2
2019-05-05T18:23:55.671Z,12.2
2019-05-05T18:26:00.104Z,12.5
2019-05-05T18:27:04.415Z,12.4
2019-05-05T18:28:21.463Z,11.8
2019-05-05T18:29:25.396Z,12
2019-05-05T18:31:29.803Z,12.1
2019-05-05T18:33:35.106Z,12
2019-05-05T18:34:37.300Z,12.4
2019-05-05T18:35:39.478Z,12.2
2019-05-05T18:36:41.642Z,12
2019-05-05T18:38:47.248Z,12
2019-05-05T18:40:51.653Z,12.4
2019-05-05T18:41:53.842Z,12.4
2019-05-05T18:43:58.891Z,12.2
2019-05-05T18:45:03.573Z,12.2
2019-05-05T18:46:06.244Z,12
2019-05-05T18:47:19.191Z,12
2019-05-05T18:49:24.383Z,11.7
2019-05-05T18:51:29.019Z,11.5
2019-05-05T18:52:31.125Z,11.6
2019-05-05T18:53:35.233Z,11.2
2019-05-05T18:54:37.310Z,11.6
2019-05-05T18:56:41.514Z,11.4
2019-05-05T18:58:46.674Z,11.4
2019-05-05T18:59:48.792Z,11.4
2019-05-05T19:00:50.868Z,11.1
2019-05-05T19:01:52.950Z,11.4
2019-05-05T19:03:57.180Z,11.1
2019-05-05T19:04:59.265Z,11.2
2019-05-05T19:07:03.475Z,11.6
2019-05-05T19:09:08.137Z,11.6
2019-05-05T19:10:10.225Z,11.1
2019-05-05T19:12:14.404Z,11.5
2019-05-05T19:14:18.618Z,11.2
2019-05-05T19:15:21.490Z,11.2
2019-05-05T19:16:24.839Z,11.2
2019-05-05T19:17:29.865Z,11.2
2019-05-05T19:19:36.303Z,11
2019-05-05T19:20:38.400Z,11.2
2019-05-05T19:21:40.475Z,11.1
2019-05-05T19:22:44.579Z,11.2
2019-05-05T19:24:49.091Z,11
2019-05-05T19:26:57.272Z,11.1
2019-05-05T19:27:59.354Z,10.9
2019-05-05T19:29:06.405Z,10.9
2019-05-05T19:30:08.487Z,10.8
2019-05-05T19:32:12.817Z,10.7
2019-05-05T19:34:18.721Z,10.6
2019-05-05T19:35:20.836Z,10.3
2019-05-05T19:37:27.475Z,10.4
2019-05-05T19:39:31.667Z,10.1
2019-05-05T19:41:38.125Z,10
2019-05-05T19:42:40.211Z,9.9
2019-05-05T19:44:47.107Z,9.9
2019-05-05T19:46:51.300Z,9.8
2019-05-05T19:47:53.374Z,9.8
2019-05-05T19:48:55.474Z,9.8
2019-05-05T19:49:57.549Z,9.9
2019-05-05T19:52:05.506Z,9.6
2019-05-05T19:54:10.016Z,9.5
2019-05-05T19:55:14.554Z,9.4
2019-05-05T19:57:18.746Z,9.3
2019-05-05T19:59:23.297Z,9.2
2019-05-05T20:01:38.777Z,9.2
2019-05-05T20:02:40.817Z,8.9
2019-05-05T20:04:47.787Z,8.6
2019-05-05T20:06:52.003Z,8.8
2019-05-05T20:08:58.490Z,8.8
2019-05-05T20:10:00.996Z,8.6
2019-05-05T20:12:08.387Z,8.5
2019-05-05T20:14:15.800Z,8.6
2019-05-05T20:15:17.872Z,8.5
2019-05-05T20:16:19.943Z,8.7
2019-05-05T20:17:22.315Z,8.7
2019-05-05T20:19:28.087Z,8.8
2019-05-05T20:21:35.927Z,8.8
2019-05-05T20:22:37.986Z,8.5
2019-05-05T20:24:44.818Z,8.6
2019-05-05T20:26:49.011Z,8.7
2019-05-05T20:29:17.450Z,8.7
2019-05-05T20:31:24.011Z,8.8
2019-05-05T20:32:26.390Z,8.8
2019-05-05T20:34:30.900Z,8.4
2019-05-05T20:35:34.915Z,8.6
2019-05-05T20:36:37.257Z,8.6
2019-05-05T20:37:39.341Z,8.5
2019-05-05T20:39:45.135Z,8.3
2019-05-05T20:40:47.237Z,8.3
2019-05-05T20:42:54.690Z,8.4
2019-05-05T20:44:58.932Z,8.4
2019-05-05T20:46:01.012Z,8.2
2019-05-05T20:48:07.641Z,8.1
2019-05-05T20:50:11.841Z,8
2019-05-05T20:52:16.987Z,8.1
2019-05-05T20:53:19.078Z,7.8
2019-05-05T20:55:23.251Z,8
2019-05-05T20:57:27.849Z,8
2019-05-05T20:58:29.928Z,7.8
2019-05-05T20:59:35.142Z,7.9
2019-05-05T21:00:37.176Z,8
2019-05-05T21:02:43.784Z,7.9
2019-05-05T21:04:47.949Z,7.9
2019-05-05T21:05:50.295Z,8
2019-05-05T21:07:54.898Z,7.9
2019-05-05T21:09:59.464Z,7.9
2019-05-05T21:11:01.546Z,7.7
2019-05-05T21:12:06.221Z,7.7
2019-05-05T21:13:08.994Z,7.7
2019-05-05T21:15:14.203Z,7.7
2019-05-05T21:17:19.223Z,7.8
2019-05-05T21:18:24.247Z,7.5
2019-05-05T21:19:26.329Z,7.4
2019-05-05T21:20:28.429Z,7.5
2019-05-05T21:22:34.912Z,7.7
2019-05-05T21:24:39.112Z,7.5
2019-05-05T21:25:41.236Z,7.5
2019-05-05T21:27:45.835Z,7.5
2019-05-05T21:29:50.656Z,7.6
2019-05-05T21:30:54.984Z,7.9
2019-05-05T21:32:59.590Z,7.9
2019-05-05T21:35:03.814Z,7.9
2019-05-05T21:36:06.576Z,8.1
2019-05-05T21:37:08.653Z,8
2019-05-05T21:38:10.723Z,7.9
2019-05-05T21:40:17.434Z,7.6
2019-05-05T21:42:24.949Z,7.7
2019-05-05T21:43:27.319Z,7.9
2019-05-05T21:44:29.403Z,7.7
2019-05-05T21:45:31.478Z,7.7
2019-05-05T21:47:37.873Z,7.6
2019-05-05T21:49:42.092Z,7.5
2019-05-05T21:50:44.158Z,7.4
2019-05-05T21:52:48.362Z,7.6